This is the latest recevied weather packets stored in our database for station/object DO7VLR-5. If no packets are shown the sender has not sent any weather packets the latest 10 day(s).
| Time | Temp. | Humidity | Pressure | Rain* | Wind** | Luminosity | Snow |
|---|---|---|---|---|---|---|---|
| 1777582815 | 13.33° C | 31% | 1024.8 hPa | 0 mm | - | - | - |
| 1777581016 | 13.89° C | 31% | 1024.5 hPa | 0 mm | - | - | - |
| 1777579217 | 13.33° C | 33% | 1024.5 hPa | 0 mm | - | - | - |
| 1777577417 | 14.44° C | 31% | 1024.1 hPa | 0 mm | - | - | - |
| 1777575617 | 15° C | 26% | 1023.9 hPa | 0 mm | - | - | - |
| 1777573817 | 16.11° C | 25% | 1023.7 hPa | 0 mm | - | - | - |
| 1777572017 | 16.67° C | 23% | 1023.5 hPa | 0 mm | - | - | - |
| 1777570218 | 17.22° C | 23% | 1023.5 hPa | 0 mm | - | - | - |
| 1777568417 | 18.33° C | 22% | 1023.5 hPa | 0 mm | - | - | - |
| 1777566617 | 18.33° C | 22% | 1023.7 hPa | 0 mm | - | - | - |
| 1777564817 | 18.33° C | 21% | 1023.7 hPa | 0 mm | - | - | - |
| 1777563018 | 18.89° C | 22% | 1023.8 hPa | 0 mm | - | - | - |
| 1777561217 | 18.89° C | 22% | 1024.1 hPa | 0 mm | - | - | - |
| 1777559417 | 18.89° C | 21% | 1024.2 hPa | 0 mm | - | - | - |
| 1777557617 | 18.33° C | 21% | 1024.3 hPa | 0 mm | - | - | - |
| 1777555817 | 18.33° C | 22% | 1024.6 hPa | 0 mm | - | - | - |
| 1777554016 | 18.33° C | 25% | 1024.5 hPa | 0 mm | - | - | - |
| 1777552216 | 17.22° C | 27% | 1024.6 hPa | 0 mm | - | - | - |
| 1777550416 | 16.67° C | 28% | 1024.6 hPa | 0 mm | - | - | - |
| 1777548616 | 16.67° C | 29% | 1025 hPa | 0 mm | - | - | - |
| 1777546816 | 15.56° C | 30% | 1025.3 hPa | 0 mm | - | - | - |
| 1777545016 | 15.56° C | 30% | 1025.4 hPa | 0 mm | - | - | - |
| 1777543216 | 15° C | 33% | 1025.4 hPa | 0 mm | - | - | - |
| 1777541416 | 13.89° C | 34% | 1025.4 hPa | 0 mm | - | - | - |
| 1777539616 | 12.78° C | 36% | 1025.7 hPa | 0 mm | - | - | - |
* Rain latest hour (hover to see other rain measurements)
** Current wind speed in m/s (hover to see current wind gust speed)